DLH578 EDDM-FAOR
Flight info
| Callsign | DLH578 |
|---|---|
| Flight time | N/A |
| Altitude | 37000 |
| Route | TURBU7N TURBU Y107 TOBSO DCT BAKOR DCT VESAL DCT LUMAV DCT TINTO DCT QUENN DCT ABDAB/N0480F380 UL44 TUC UW411 EBA UG362 BARKA/N0479F390 UM2 DJA UB730 DIR UA607 FL UM731 AMREN/N0482F410 UM731 RUDAS UQ25 ITROL UQ44 AVAGO AVAGO1C |
| Aircraft | A359/H-SADE2E3GHIJ1J2J3J4J5M1P2RWXYZ/LB1D1 |
Departure
| Time | N/A |
|---|---|
| Airport | Munich Airport (EDDM) |
Arrival
| Time | 2026-05-04 07:26 |
|---|---|
| Airport | O.R. Tambo International Airport (FAOR) |
| Time | Latitude | Longitude | Altitude | Speed | Heading |
|---|---|---|---|---|---|
| 2026-05-04 05:06 | -10.06836 | 20.58666 | 41054 ft | 492 kts | 158° |
| 2026-05-04 05:06 | -10.10020 | 20.59944 | 41052 ft | 492 kts | 158° |
| 2026-05-04 05:07 | -10.16379 | 20.62499 | 41045 ft | 492 kts | 158° |
| 2026-05-04 05:07 | -10.22734 | 20.65054 | 41057 ft | 491 kts | 158° |
| 2026-05-04 05:09 | -10.51327 | 20.76561 | 41060 ft | 491 kts | 158° |
| 2026-05-04 05:10 | -10.57682 | 20.79122 | 41059 ft | 491 kts | 158° |
| 2026-05-04 05:10 | -10.64043 | 20.81686 | 41057 ft | 492 kts | 158° |
| 2026-05-04 05:11 | -10.70403 | 20.84251 | 41062 ft | 492 kts | 158° |
| 2026-05-04 05:11 | -10.76776 | 20.86822 | 41061 ft | 492 kts | 158° |
| 2026-05-04 05:12 | -10.83142 | 20.89392 | 41063 ft | 492 kts | 158° |
| 2026-05-04 05:12 | -10.89510 | 20.91964 | 41054 ft | 492 kts | 158° |
| 2026-05-04 05:13 | -10.95877 | 20.94536 | 41057 ft | 492 kts | 158° |
| 2026-05-04 05:13 | -11.02200 | 20.97092 | 41061 ft | 492 kts | 158° |
| 2026-05-04 05:14 | -11.08565 | 20.99666 | 41068 ft | 492 kts | 158° |
| 2026-05-04 05:14 | -11.14933 | 21.02243 | 41061 ft | 492 kts | 158° |
| 2026-05-04 05:15 | -11.21296 | 21.04818 | 41063 ft | 492 kts | 158° |
| 2026-05-04 05:15 | -11.27665 | 21.07398 | 41062 ft | 492 kts | 158° |
| 2026-05-04 05:16 | -11.34029 | 21.09976 | 41060 ft | 492 kts | 158° |
| 2026-05-04 05:16 | -11.40397 | 21.12558 | 41061 ft | 492 kts | 158° |
| 2026-05-04 05:17 | -11.46764 | 21.15140 | 41061 ft | 493 kts | 158° |
| 2026-05-04 05:17 | -11.53135 | 21.17725 | 41065 ft | 493 kts | 158° |
| 2026-05-04 05:18 | -11.59515 | 21.20315 | 41061 ft | 493 kts | 158° |
| 2026-05-04 05:18 | -11.65894 | 21.22906 | 41062 ft | 493 kts | 158° |
| 2026-05-04 05:19 | -11.72265 | 21.25495 | 41066 ft | 493 kts | 158° |
| 2026-05-04 05:19 | -11.78641 | 21.28088 | 41065 ft | 493 kts | 158° |
| 2026-05-04 05:20 | -11.85015 | 21.30680 | 41061 ft | 493 kts | 158° |
| 2026-05-04 05:20 | -11.91391 | 21.33275 | 41060 ft | 493 kts | 158° |
| 2026-05-04 05:21 | -11.97763 | 21.35870 | 41063 ft | 493 kts | 158° |
| 2026-05-04 05:21 | -12.04122 | 21.38460 | 41064 ft | 492 kts | 158° |
| 2026-05-04 05:22 | -12.10488 | 21.41055 | 41068 ft | 492 kts | 158° |
| 2026-05-04 05:22 | -12.16811 | 21.43634 | 41064 ft | 492 kts | 158° |
| 2026-05-04 05:23 | -12.23172 | 21.46229 | 41064 ft | 492 kts | 158° |
| 2026-05-04 05:23 | -12.29540 | 21.48829 | 41063 ft | 492 kts | 158° |
| 2026-05-04 05:24 | -12.35900 | 21.51426 | 41070 ft | 493 kts | 158° |
| 2026-05-04 05:24 | -12.42272 | 21.54030 | 41061 ft | 493 kts | 158° |
| 2026-05-04 05:25 | -12.48635 | 21.56632 | 41068 ft | 493 kts | 158° |
| 2026-05-04 05:25 | -12.55001 | 21.59236 | 41070 ft | 493 kts | 158° |
| 2026-05-04 05:26 | -12.61365 | 21.61841 | 41073 ft | 492 kts | 158° |
| 2026-05-04 05:26 | -12.67726 | 21.64446 | 41072 ft | 492 kts | 158° |
| 2026-05-04 05:28 | -12.93129 | 21.74864 | 41081 ft | 492 kts | 158° |
| 2026-05-04 05:29 | -12.99497 | 21.77440 | 41080 ft | 492 kts | 159° |
| 2026-05-04 05:29 | -13.05922 | 21.79873 | 41085 ft | 492 kts | 160° |
| 2026-05-04 05:31 | -13.31630 | 21.89639 | 41079 ft | 492 kts | 159° |
| 2026-05-04 05:32 | -13.38051 | 21.92097 | 41090 ft | 492 kts | 159° |
| 2026-05-04 05:33 | -13.47682 | 21.95785 | 41088 ft | 492 kts | 159° |
| 2026-05-04 05:33 | -13.54099 | 21.98244 | 41088 ft | 492 kts | 159° |
| 2026-05-04 05:34 | -13.60520 | 22.00706 | 41088 ft | 493 kts | 160° |
| 2026-05-04 05:34 | -13.66904 | 22.03139 | 41092 ft | 493 kts | 160° |
| 2026-05-04 05:35 | -13.73339 | 22.05581 | 41089 ft | 493 kts | 160° |
| 2026-05-04 05:35 | -13.79773 | 22.08027 | 41088 ft | 493 kts | 160° |
| 2026-05-04 05:36 | -13.86248 | 22.10492 | 41087 ft | 493 kts | 160° |
| 2026-05-04 05:36 | -13.92678 | 22.12943 | 41092 ft | 493 kts | 160° |
| 2026-05-04 05:37 | -13.99074 | 22.15382 | 41089 ft | 493 kts | 160° |
| 2026-05-04 05:37 | -14.05511 | 22.17838 | 41095 ft | 493 kts | 160° |
| 2026-05-04 05:38 | -14.15163 | 22.21524 | 41092 ft | 493 kts | 160° |
| 2026-05-04 05:38 | -14.21595 | 22.23982 | 41087 ft | 493 kts | 160° |
| 2026-05-04 05:39 | -14.31243 | 22.27671 | 41089 ft | 493 kts | 160° |
| 2026-05-04 05:40 | -14.40901 | 22.31368 | 41093 ft | 493 kts | 160° |
| 2026-05-04 05:40 | -14.47269 | 22.34000 | 41091 ft | 493 kts | 156° |
| 2026-05-04 05:41 | -14.53535 | 22.36899 | 41087 ft | 493 kts | 156° |
| 2026-05-04 05:41 | -14.59804 | 22.39798 | 41089 ft | 494 kts | 156° |
| 2026-05-04 05:42 | -14.66077 | 22.42647 | 41089 ft | 494 kts | 157° |
| 2026-05-04 05:42 | -14.72379 | 22.45486 | 41094 ft | 494 kts | 157° |
| 2026-05-04 05:43 | -14.78682 | 22.48323 | 41089 ft | 494 kts | 157° |
| 2026-05-04 05:45 | -15.03892 | 22.59704 | 41090 ft | 494 kts | 157° |
| 2026-05-04 05:47 | -15.29078 | 22.71106 | 41093 ft | 495 kts | 157° |
| 2026-05-04 05:47 | -15.34367 | 22.73504 | 41091 ft | 495 kts | 157° |
| 2026-05-04 05:48 | -15.40679 | 22.76367 | 41094 ft | 495 kts | 157° |
| 2026-05-04 05:48 | -15.46992 | 22.79233 | 41100 ft | 495 kts | 157° |
| 2026-05-04 05:49 | -15.53264 | 22.82083 | 41097 ft | 496 kts | 157° |
| 2026-05-04 05:49 | -15.59584 | 22.84955 | 41097 ft | 496 kts | 157° |
| 2026-05-04 05:51 | -15.85122 | 22.95679 | 41099 ft | 496 kts | 160° |
| 2026-05-04 05:52 | -15.91528 | 22.98328 | 41106 ft | 496 kts | 159° |
| 2026-05-04 05:52 | -15.97936 | 23.00988 | 41096 ft | 496 kts | 159° |
| 2026-05-04 05:54 | -16.23570 | 23.11640 | 41103 ft | 496 kts | 160° |
| 2026-05-04 05:55 | -16.29980 | 23.14308 | 41100 ft | 496 kts | 160° |
| 2026-05-04 05:55 | -16.36393 | 23.16978 | 41106 ft | 496 kts | 160° |
| 2026-05-04 05:56 | -16.42797 | 23.19648 | 41099 ft | 496 kts | 160° |
| 2026-05-04 05:56 | -16.49211 | 23.22323 | 41104 ft | 497 kts | 160° |
| 2026-05-04 05:57 | -16.55585 | 23.24983 | 41112 ft | 497 kts | 160° |
| 2026-05-04 05:57 | -16.62000 | 23.27662 | 41112 ft | 497 kts | 160° |
| 2026-05-04 05:58 | -16.68414 | 23.30343 | 41104 ft | 497 kts | 160° |
| 2026-05-04 05:58 | -16.74874 | 23.33045 | 41110 ft | 497 kts | 160° |
| 2026-05-04 05:59 | -16.81257 | 23.35717 | 41103 ft | 497 kts | 160° |
| 2026-05-04 05:59 | -16.87660 | 23.38399 | 41101 ft | 498 kts | 160° |
| 2026-05-04 06:00 | -16.94086 | 23.41092 | 41118 ft | 498 kts | 160° |
| 2026-05-04 06:00 | -17.00509 | 23.43787 | 41118 ft | 497 kts | 160° |
| 2026-05-04 06:01 | -17.06934 | 23.46484 | 41115 ft | 498 kts | 160° |
| 2026-05-04 06:03 | -17.32650 | 23.57300 | 41119 ft | 498 kts | 160° |
| 2026-05-04 06:05 | -17.61547 | 23.69570 | 41128 ft | 499 kts | 158° |
| 2026-05-04 06:06 | -17.67803 | 23.72689 | 41132 ft | 500 kts | 156° |
| 2026-05-04 06:06 | -17.74067 | 23.75849 | 41130 ft | 500 kts | 158° |
| 2026-05-04 06:07 | -17.80454 | 23.78713 | 41133 ft | 499 kts | 160° |
| 2026-05-04 06:07 | -17.86873 | 23.81485 | 41136 ft | 499 kts | 160° |
| 2026-05-04 06:08 | -17.93283 | 23.84278 | 41138 ft | 499 kts | 160° |
| 2026-05-04 06:08 | -17.99658 | 23.87041 | 41127 ft | 499 kts | 160° |
| 2026-05-04 06:09 | -18.06126 | 23.89846 | 41129 ft | 499 kts | 160° |
| 2026-05-04 06:11 | -18.31769 | 24.01032 | 41140 ft | 501 kts | 160° |
| 2026-05-04 06:13 | -18.57338 | 24.12778 | 41145 ft | 502 kts | 159° |
| 2026-05-04 06:14 | -18.79721 | 24.23127 | 41152 ft | 502 kts | 159° |
| 2026-05-04 06:15 | -18.86121 | 24.26092 | 41156 ft | 503 kts | 159° |
| 2026-05-04 06:15 | -18.92531 | 24.29048 | 41151 ft | 502 kts | 160° |
| 2026-05-04 06:16 | -18.99015 | 24.31747 | 41151 ft | 501 kts | 162° |
| 2026-05-04 06:16 | -19.05545 | 24.34367 | 41151 ft | 501 kts | 162° |
| 2026-05-04 06:17 | -19.12058 | 24.37020 | 41154 ft | 502 kts | 162° |
| 2026-05-04 06:17 | -19.18528 | 24.39811 | 41149 ft | 503 kts | 160° |
| 2026-05-04 06:18 | -19.24957 | 24.42719 | 41151 ft | 502 kts | 159° |
| 2026-05-04 06:20 | -19.50666 | 24.54235 | 41143 ft | 503 kts | 160° |
| 2026-05-04 06:21 | -19.66787 | 24.61450 | 41141 ft | 503 kts | 160° |
| 2026-05-04 06:22 | -19.73238 | 24.64325 | 41139 ft | 503 kts | 160° |
| 2026-05-04 06:25 | -20.18590 | 24.84316 | 41139 ft | 505 kts | 161° |
| 2026-05-04 06:26 | -20.25121 | 24.86899 | 41139 ft | 503 kts | 164° |
| 2026-05-04 06:26 | -20.31744 | 24.89340 | 41137 ft | 503 kts | 164° |
| 2026-05-04 06:27 | -20.48226 | 24.95832 | 41127 ft | 506 kts | 158° |
| 2026-05-04 06:28 | -20.54548 | 24.99035 | 41141 ft | 507 kts | 157° |
| 2026-05-04 06:28 | -20.60911 | 25.02280 | 41128 ft | 507 kts | 158° |
| 2026-05-04 06:29 | -20.67299 | 25.05451 | 41128 ft | 506 kts | 158° |
| 2026-05-04 06:29 | -20.73701 | 25.08587 | 41128 ft | 506 kts | 159° |
| 2026-05-04 06:30 | -20.80099 | 25.11715 | 41130 ft | 506 kts | 159° |
| 2026-05-04 06:30 | -20.86505 | 25.14852 | 41130 ft | 507 kts | 159° |
| 2026-05-04 06:31 | -20.92916 | 25.17998 | 41127 ft | 507 kts | 159° |
| 2026-05-04 06:31 | -20.99324 | 25.21147 | 41130 ft | 507 kts | 159° |
| 2026-05-04 06:33 | -21.25499 | 25.32242 | 41141 ft | 506 kts | 162° |
| 2026-05-04 06:34 | -21.32059 | 25.35006 | 41139 ft | 506 kts | 162° |
| 2026-05-04 06:34 | -21.37493 | 25.37303 | 41143 ft | 505 kts | 162° |
| 2026-05-04 06:36 | -21.63658 | 25.48406 | 41154 ft | 506 kts | 161° |
| 2026-05-04 06:37 | -21.70142 | 25.51379 | 41152 ft | 507 kts | 160° |
| 2026-05-04 06:37 | -21.76626 | 25.54388 | 41154 ft | 508 kts | 160° |
| 2026-05-04 06:38 | -21.83121 | 25.57379 | 41157 ft | 508 kts | 161° |
| 2026-05-04 06:40 | -22.09048 | 25.69273 | 41159 ft | 507 kts | 161° |
| 2026-05-04 06:40 | -22.15537 | 25.72257 | 41162 ft | 507 kts | 161° |
| 2026-05-04 06:41 | -22.22024 | 25.75242 | 41173 ft | 507 kts | 161° |
| 2026-05-04 06:41 | -22.28513 | 25.78233 | 41169 ft | 507 kts | 161° |
| 2026-05-04 06:42 | -22.35006 | 25.81228 | 41174 ft | 507 kts | 161° |
| 2026-05-04 06:44 | -22.60992 | 25.93244 | 41173 ft | 508 kts | 161° |
| 2026-05-04 06:44 | -22.67494 | 25.96259 | 41168 ft | 508 kts | 161° |
| 2026-05-04 06:45 | -22.73979 | 25.99269 | 41173 ft | 507 kts | 161° |
| 2026-05-04 06:45 | -22.80462 | 26.02281 | 41178 ft | 507 kts | 161° |
| 2026-05-04 06:46 | -22.86946 | 26.05296 | 41176 ft | 507 kts | 161° |
| 2026-05-04 06:46 | -22.93425 | 26.08312 | 41174 ft | 507 kts | 161° |
| 2026-05-04 06:48 | -23.19362 | 26.20419 | 41171 ft | 507 kts | 161° |
| 2026-05-04 06:50 | -23.45275 | 26.32567 | 41177 ft | 506 kts | 161° |
| 2026-05-04 06:51 | -23.51743 | 26.35606 | 41180 ft | 506 kts | 161° |
| 2026-05-04 06:51 | -23.58171 | 26.38631 | 41186 ft | 506 kts | 162° |
| 2026-05-04 06:52 | -23.64686 | 26.41699 | 41184 ft | 507 kts | 162° |
| 2026-05-04 06:52 | -23.71127 | 26.44736 | 41184 ft | 507 kts | 162° |
| 2026-05-04 06:53 | -23.77607 | 26.47781 | 41190 ft | 507 kts | 162° |
| 2026-05-04 06:53 | -23.84092 | 26.50819 | 41192 ft | 507 kts | 162° |
| 2026-05-04 06:54 | -23.90588 | 26.53866 | 41196 ft | 508 kts | 162° |
| 2026-05-04 06:54 | -23.97072 | 26.56913 | 41186 ft | 508 kts | 162° |
| 2026-05-04 06:55 | -24.03551 | 26.59964 | 41184 ft | 506 kts | 162° |
| 2026-05-04 06:55 | -24.10023 | 26.63014 | 41197 ft | 506 kts | 162° |
| 2026-05-04 06:57 | -24.35740 | 26.75797 | 41201 ft | 508 kts | 161° |
| 2026-05-04 06:58 | -24.42178 | 26.79003 | 41191 ft | 508 kts | 161° |
| 2026-05-04 06:58 | -24.48615 | 26.82213 | 41199 ft | 508 kts | 161° |
| 2026-05-04 06:59 | -24.55052 | 26.85426 | 41196 ft | 508 kts | 161° |
| 2026-05-04 06:59 | -24.61489 | 26.88643 | 41175 ft | 508 kts | 161° |
| 2026-05-04 07:01 | -24.83882 | 26.99861 | 39525 ft | 508 kts | 161° |
| 2026-05-04 07:01 | -24.87098 | 27.01475 | 39322 ft | 508 kts | 161° |
| 2026-05-04 07:02 | -24.90319 | 27.03094 | 39097 ft | 509 kts | 161° |
| 2026-05-04 07:02 | -24.93550 | 27.04718 | 38867 ft | 510 kts | 161° |
| 2026-05-04 07:02 | -24.96725 | 27.06316 | 38308 ft | 507 kts | 161° |
| 2026-05-04 07:02 | -24.98404 | 27.07161 | 37956 ft | 506 kts | 161° |
| 2026-05-04 07:03 | -25.01546 | 27.08742 | 37280 ft | 505 kts | 161° |
| 2026-05-04 07:03 | -25.04741 | 27.10351 | 36568 ft | 505 kts | 161° |
| 2026-05-04 07:03 | -25.07938 | 27.11962 | 35849 ft | 506 kts | 160° |
| 2026-05-04 07:03 | -25.11141 | 27.13576 | 35132 ft | 506 kts | 160° |
| 2026-05-04 07:04 | -25.14335 | 27.15188 | 34550 ft | 504 kts | 160° |
| 2026-05-04 07:04 | -25.17517 | 27.16796 | 33933 ft | 502 kts | 159° |
| 2026-05-04 07:04 | -25.20687 | 27.18398 | 33312 ft | 498 kts | 159° |
| 2026-05-04 07:04 | -25.23825 | 27.19985 | 32735 ft | 494 kts | 159° |
| 2026-05-04 07:05 | -25.26940 | 27.21560 | 32170 ft | 491 kts | 159° |
| 2026-05-04 07:05 | -25.30038 | 27.23128 | 31596 ft | 488 kts | 159° |
| 2026-05-04 07:05 | -25.33116 | 27.24687 | 31014 ft | 486 kts | 159° |
| 2026-05-04 07:05 | -25.36180 | 27.26238 | 30446 ft | 483 kts | 159° |
| 2026-05-04 07:06 | -25.42263 | 27.29323 | 29230 ft | 477 kts | 159° |
| 2026-05-04 07:06 | -25.45271 | 27.30850 | 28658 ft | 474 kts | 158° |
| 2026-05-04 07:06 | -25.48250 | 27.32363 | 28108 ft | 470 kts | 158° |
| 2026-05-04 07:07 | -25.51211 | 27.33868 | 27547 ft | 467 kts | 158° |
| 2026-05-04 07:08 | -25.70727 | 27.43939 | 25348 ft | 412 kts | 150° |
| 2026-05-04 07:09 | -25.72853 | 27.46046 | 24948 ft | 413 kts | 129° |
| 2026-05-04 07:09 | -25.74454 | 27.48685 | 24547 ft | 411 kts | 122° |
| 2026-05-04 07:09 | -25.75921 | 27.51365 | 23994 ft | 404 kts | 122° |
| 2026-05-04 07:09 | -25.77362 | 27.53999 | 23401 ft | 394 kts | 122° |
| 2026-05-04 07:10 | -25.78784 | 27.56575 | 22972 ft | 391 kts | 122° |
| 2026-05-04 07:10 | -25.80204 | 27.59135 | 22571 ft | 387 kts | 122° |
| 2026-05-04 07:12 | -25.89818 | 27.76380 | 19989 ft | 364 kts | 121° |
| 2026-05-04 07:12 | -25.91147 | 27.78759 | 19634 ft | 361 kts | 120° |
| 2026-05-04 07:12 | -25.92460 | 27.81119 | 19291 ft | 358 kts | 120° |
| 2026-05-04 07:12 | -25.93763 | 27.83461 | 18938 ft | 355 kts | 120° |
| 2026-05-04 07:13 | -25.95054 | 27.85784 | 18593 ft | 351 kts | 120° |
| 2026-05-04 07:13 | -25.96329 | 27.88080 | 18196 ft | 348 kts | 120° |
| 2026-05-04 07:13 | -25.97578 | 27.90327 | 17868 ft | 343 kts | 120° |
| 2026-05-04 07:14 | -26.02458 | 27.99121 | 16501 ft | 323 kts | 120° |
| 2026-05-04 07:14 | -26.03617 | 28.01211 | 16377 ft | 312 kts | 120° |
| 2026-05-04 07:15 | -26.04737 | 28.03231 | 16259 ft | 302 kts | 120° |
| 2026-05-04 07:15 | -26.05821 | 28.05188 | 16118 ft | 292 kts | 120° |
| 2026-05-04 07:15 | -26.06882 | 28.07085 | 15898 ft | 287 kts | 121° |
| 2026-05-04 07:15 | -26.08241 | 28.08665 | 15632 ft | 283 kts | 148° |
| 2026-05-04 07:16 | -26.10065 | 28.09371 | 15370 ft | 278 kts | 172° |
| 2026-05-04 07:16 | -26.11992 | 28.09649 | 14993 ft | 280 kts | 174° |
| 2026-05-04 07:16 | -26.13934 | 28.09788 | 14644 ft | 279 kts | 184° |
| 2026-05-04 07:16 | -26.15816 | 28.09333 | 14314 ft | 277 kts | 200° |
| 2026-05-04 07:17 | -26.17632 | 28.08604 | 13935 ft | 278 kts | 201° |
| 2026-05-04 07:17 | -26.19435 | 28.07853 | 13623 ft | 275 kts | 201° |
| 2026-05-04 07:17 | -26.21215 | 28.07119 | 13350 ft | 271 kts | 201° |
| 2026-05-04 07:17 | -26.22958 | 28.06407 | 13077 ft | 266 kts | 202° |
| 2026-05-04 07:18 | -26.24685 | 28.05705 | 12794 ft | 262 kts | 202° |
| 2026-05-04 07:18 | -26.26395 | 28.05012 | 12429 ft | 263 kts | 202° |
| 2026-05-04 07:18 | -26.28120 | 28.04310 | 12011 ft | 265 kts | 202° |
| 2026-05-04 07:18 | -26.29848 | 28.03609 | 11664 ft | 264 kts | 202° |
| 2026-05-04 07:19 | -26.31568 | 28.02919 | 11345 ft | 262 kts | 202° |
| 2026-05-04 07:19 | -26.33364 | 28.02533 | 11004 ft | 265 kts | 185° |
| 2026-05-04 07:19 | -26.35192 | 28.02863 | 10667 ft | 271 kts | 161° |
| 2026-05-04 07:19 | -26.36722 | 28.04091 | 10306 ft | 277 kts | 131° |
| 2026-05-04 07:20 | -26.37495 | 28.06045 | 9920 ft | 280 kts | 97° |
| 2026-05-04 07:20 | -26.37238 | 28.08159 | 9556 ft | 275 kts | 69° |
| 2026-05-04 07:20 | -26.36802 | 28.09475 | 9311 ft | 273 kts | 64° |
| 2026-05-04 07:20 | -26.35773 | 28.12079 | 8871 ft | 271 kts | 62° |
| 2026-05-04 07:22 | -26.27492 | 28.19401 | 8015 ft | 205 kts | 11° |
| 2026-05-04 07:22 | -26.26135 | 28.19849 | 7864 ft | 202 kts | 12° |
| 2026-05-04 07:23 | -26.25222 | 28.20147 | 7636 ft | 203 kts | 12° |
| 2026-05-04 07:23 | -26.23873 | 28.20564 | 7365 ft | 199 kts | 12° |
| 2026-05-04 07:23 | -26.22572 | 28.20969 | 7124 ft | 190 kts | 12° |
| 2026-05-04 07:23 | -26.21336 | 28.21356 | 6887 ft | 178 kts | 12° |
| 2026-05-04 07:24 | -26.20197 | 28.21713 | 6690 ft | 163 kts | 11° |
| 2026-05-04 07:24 | -26.19136 | 28.22049 | 6560 ft | 155 kts | 12° |
| 2026-05-04 07:24 | -26.18125 | 28.22365 | 6328 ft | 146 kts | 11° |
| 2026-05-04 07:24 | -26.17158 | 28.22636 | 6152 ft | 144 kts | 9° |
| 2026-05-04 07:25 | -26.16207 | 28.22945 | 5954 ft | 143 kts | 11° |
| 2026-05-04 07:26 | -26.12560 | 28.23884 | 5553 ft | 4 kts | 227° |
| 2026-05-04 07:27 | -26.12605 | 28.23865 | 5552 ft | 9 kts | 197° |
| 2026-05-04 07:27 | -26.12672 | 28.23843 | 5554 ft | 12 kts | 197° |
| 2026-05-04 07:27 | -26.12760 | 28.23814 | 5554 ft | 15 kts | 196° |
| 2026-05-04 07:27 | -26.12879 | 28.23779 | 5554 ft | 20 kts | 195° |
| 2026-05-04 07:28 | -26.13023 | 28.23735 | 5556 ft | 21 kts | 195° |
| 2026-05-04 07:28 | -26.13095 | 28.23714 | 5555 ft | 9 kts | 194° |
| 2026-05-04 07:28 | -26.13133 | 28.23669 | 5556 ft | 9 kts | 264° |
| 2026-05-04 07:28 | -26.13127 | 28.23586 | 5554 ft | 12 kts | 276° |
| 2026-05-04 07:29 | -26.13117 | 28.23493 | 5556 ft | 12 kts | 277° |
| 2026-05-04 07:29 | -26.13150 | 28.23418 | 5557 ft | 11 kts | 220° |
| 2026-05-04 07:29 | -26.13166 | 28.23360 | 5556 ft | 5 kts | 271° |
| 2026-05-04 07:29 | -26.13163 | 28.23330 | 5556 ft | 2 kts | 276° |
| 2026-05-04 07:30 | -26.13163 | 28.23325 | 5555 ft | 0 kts | 276° |